createdAt,value
2017-11-12T00:02:12.339Z,62.30
2017-11-12T00:04:40.647Z,59.28
2017-11-12T00:07:08.196Z,61.67
2017-11-12T00:09:36.121Z,61.17
2017-11-12T00:12:03.708Z,61.37
2017-11-12T00:14:32.062Z,60.80
2017-11-12T00:16:59.651Z,61.90
2017-11-12T00:19:27.964Z,62.60
2017-11-12T00:21:55.560Z,62.67
2017-11-12T00:24:23.114Z,67.12
2017-11-12T00:26:50.662Z,66.35
2017-11-12T00:29:18.322Z,59.05
2017-11-12T00:31:45.903Z,59.97
2017-11-12T00:34:13.451Z,56.28
2017-11-12T00:36:41.066Z,62.80
2017-11-12T00:39:08.936Z,72.57
2017-11-12T00:41:36.487Z,64.15
2017-11-12T00:44:04.086Z,57.50
2017-11-12T00:46:31.626Z,73.28
2017-11-12T00:48:59.159Z,67.68
2017-11-12T00:51:27.503Z,65.62
2017-11-12T00:53:55.046Z,64.37
2017-11-12T00:56:22.895Z,79.45
2017-11-12T00:58:50.441Z,62.75
2017-11-12T01:01:17.986Z,61.55
2017-11-12T01:03:45.929Z,69.53
2017-11-12T01:06:13.479Z,70.35
2017-11-12T01:08:41.024Z,71.75
2017-11-12T01:11:08.614Z,66.87
2017-11-12T01:13:36.155Z,79.22
2017-11-12T01:16:03.739Z,81.95
2017-11-12T01:18:32.059Z,77.50
2017-11-12T01:21:01.179Z,97.22
2017-11-12T01:23:28.757Z,80.35
2017-11-12T01:25:56.299Z,69.37
2017-11-12T01:28:23.927Z,72.10
2017-11-12T01:30:51.467Z,73.28
2017-11-12T01:33:19.783Z,73.28
2017-11-12T01:35:47.380Z,68.60
2017-11-12T01:38:14.931Z,87.60
2017-11-12T01:40:42.741Z,71.80
2017-11-12T01:43:10.410Z,71.30
2017-11-12T01:45:37.957Z,71.35
2017-11-12T01:48:05.502Z,74.93
2017-11-12T01:50:33.879Z,81.57
2017-11-12T01:53:02.182Z,65.30
2017-11-12T01:55:29.720Z,72.97
2017-11-12T01:57:58.227Z,70.28
2017-11-12T02:00:25.784Z,79.10
2017-11-12T02:02:54.710Z,76.40
2017-11-12T02:05:22.251Z,79.93
2017-11-12T02:07:49.789Z,71.47
2017-11-12T02:10:17.374Z,81.28
2017-11-12T02:12:44.922Z,67.40
2017-11-12T02:15:12.755Z,66.40
2017-11-12T02:17:41.067Z,72.35
2017-11-12T02:20:08.691Z,67.72
2017-11-12T02:22:37.017Z,76.70
2017-11-12T02:25:04.561Z,71.43
2017-11-12T02:27:32.530Z,74.32
2017-11-12T02:30:00.080Z,69.62
2017-11-12T02:32:27.623Z,76.47
2017-11-12T02:35:00.885Z,69.32
2017-11-12T02:37:28.442Z,71.07
2017-11-12T02:39:55.988Z,72.30
2017-11-12T02:42:23.590Z,71.85
2017-11-12T02:44:51.136Z,60.70
2017-11-12T02:47:18.731Z,67.53
2017-11-12T02:49:47.044Z,68.37
2017-11-12T02:52:14.839Z,67.68
2017-11-12T02:54:42.395Z,69.18
2017-11-12T02:57:09.983Z,74.22
2017-11-12T02:59:38.299Z,74.22
2017-11-12T03:02:05.886Z,74.68
2017-11-12T03:04:33.445Z,74.30
2017-11-12T03:07:01.409Z,71.90
2017-11-12T03:09:28.955Z,65.32
2017-11-12T03:11:56.618Z,65.62
2017-11-12T03:14:24.165Z,69.45
2017-11-12T03:16:51.718Z,63.92
2017-11-12T03:19:19.319Z,62.62
2017-11-12T03:21:46.866Z,67.07
2017-11-12T03:24:14.734Z,64.05
2017-11-12T03:26:42.270Z,68.05
2017-11-12T03:29:09.946Z,70.75
2017-11-12T03:31:38.298Z,67.55
2017-11-12T03:34:05.886Z,71.57
2017-11-12T03:36:33.423Z,70.95
2017-11-12T03:39:01.418Z,76.32
2017-11-12T03:41:28.952Z,79.37
2017-11-12T03:43:56.491Z,86.55
2017-11-12T03:46:24.852Z,87.15
2017-11-12T03:48:52.792Z,80.45
2017-11-12T03:51:20.330Z,89.15
2017-11-12T03:53:47.864Z,80.32
2017-11-12T03:56:16.701Z,82.10
2017-11-12T03:58:44.290Z,84.03
2017-11-12T04:01:12.599Z,83.30
2017-11-12T04:03:40.182Z,90.87
2017-11-12T04:06:07.766Z,81.07
2017-11-12T04:08:35.306Z,90.90
2017-11-12T04:11:02.990Z,83.87
2017-11-12T04:13:30.534Z,85.97
2017-11-12T04:15:58.077Z,92.30
2017-11-12T04:18:25.669Z,85.93
2017-11-12T04:20:53.245Z,81.60
2017-11-12T04:23:20.833Z,87.28
2017-11-12T04:25:48.388Z,82.78
2017-11-12T04:28:17.103Z,79.32
2017-11-12T04:30:44.638Z,89.20
2017-11-12T04:33:13.014Z,85.97
2017-11-12T04:35:41.313Z,78.60
2017-11-12T04:38:08.853Z,84.43
2017-11-12T04:40:42.102Z,79.50
2017-11-12T04:43:10.022Z,74.12
2017-11-12T04:45:37.566Z,78.35
2017-11-12T04:48:05.874Z,87.37
2017-11-12T04:50:33.462Z,75.43
2017-11-12T04:53:01.001Z,77.30
2017-11-12T04:55:28.587Z,81.37
2017-11-12T04:57:56.178Z,72.90
2017-11-12T05:00:24.503Z,68.07
2017-11-12T05:02:52.565Z,73.25
2017-11-12T05:05:20.098Z,79.18
2017-11-12T05:07:47.645Z,79.72
2017-11-12T05:10:20.838Z,72.32
2017-11-12T05:12:49.146Z,66.55
2017-11-12T05:15:16.682Z,68.40
2017-11-12T05:17:45.029Z,68.15
2017-11-12T05:20:12.679Z,67.12
2017-11-12T05:22:40.218Z,78.35
2017-11-12T05:25:07.807Z,69.00
2017-11-12T05:27:35.349Z,68.97
2017-11-12T05:30:03.627Z,66.40
2017-11-12T05:32:31.168Z,60.97
2017-11-12T05:34:59.475Z,63.67
2017-11-12T05:37:27.326Z,60.53
2017-11-12T05:39:54.878Z,67.47
2017-11-12T05:42:22.418Z,68.30
2017-11-12T05:44:49.993Z,63.55
2017-11-12T05:47:17.886Z,60.60
2017-11-12T05:49:45.427Z,58.00
2017-11-12T05:52:13.786Z,52.88
2017-11-12T05:54:43.362Z,49.60
2017-11-12T05:57:10.897Z,54.95
2017-11-12T05:59:38.594Z,50.80
2017-11-12T06:02:06.904Z,51.67
2017-11-12T06:04:34.446Z,50.50
2017-11-12T06:07:02.978Z,50.70
2017-11-12T06:09:30.518Z,55.72
2017-11-12T06:11:58.955Z,55.95
2017-11-12T06:14:27.906Z,47.97
2017-11-12T06:16:55.447Z,46.30
2017-11-12T06:22:18.749Z,43.92
2017-11-12T06:24:46.341Z,49.25
2017-11-12T06:27:26.878Z,51.97
2017-11-12T06:32:35.290Z,48.22
2017-11-12T06:40:54.916Z,41.22
2017-11-12T06:43:22.454Z,42.85
2017-11-12T06:45:50.303Z,41.53
2017-11-12T06:48:17.838Z,37.17
2017-11-12T06:50:46.146Z,39.25
2017-11-12T06:53:14.753Z,39.67
2017-11-12T06:55:42.281Z,39.85
2017-11-12T06:58:09.814Z,40.67
2017-11-12T07:00:38.309Z,37.13
2017-11-12T07:03:06.718Z,36.50
2017-11-12T07:05:34.251Z,40.05
2017-11-12T07:08:02.560Z,37.13
2017-11-12T07:10:33.008Z,38.38
2017-11-12T07:13:00.548Z,37.55
2017-11-12T07:15:28.090Z,35.30
2017-11-12T07:17:55.930Z,37.85
2017-11-12T07:20:24.238Z,31.75
2017-11-12T07:22:51.773Z,31.77
2017-11-12T07:25:20.113Z,33.17
2017-11-12T07:27:47.705Z,34.55
2017-11-12T07:30:16.353Z,31.45
2017-11-12T07:32:43.891Z,31.20
2017-11-12T07:35:12.977Z,33.13
2017-11-12T07:37:40.510Z,34.60
2017-11-12T07:40:08.809Z,44.70
2017-11-12T07:42:36.388Z,49.80
2017-11-12T07:45:04.084Z,40.88
2017-11-12T07:47:31.630Z,33.20
2017-11-12T07:49:59.161Z,53.00
2017-11-12T07:52:26.921Z,124.45
2017-11-12T07:54:55.716Z,130.80
2017-11-12T07:57:23.260Z,175.20
2017-11-12T07:59:50.849Z,34.20
2017-11-12T08:02:18.448Z,34.05
2017-11-12T08:04:46.766Z,34.60
2017-11-12T08:07:14.303Z,43.25
2017-11-12T08:09:42.646Z,34.30
2017-11-12T08:12:10.290Z,28.92
2017-11-12T08:14:37.826Z,31.48
2017-11-12T08:17:05.565Z,29.27
2017-11-12T08:19:33.867Z,31.05
2017-11-12T08:22:01.406Z,34.55
2017-11-12T08:24:29.786Z,34.67
2017-11-12T08:26:57.379Z,33.00
2017-11-12T08:29:24.930Z,34.13
2017-11-12T08:31:52.564Z,33.38
2017-11-12T08:34:20.155Z,30.23
2017-11-12T08:36:48.461Z,26.08
2017-11-12T08:39:16.058Z,42.92
2017-11-12T08:41:44.358Z,31.02
2017-11-12T08:44:11.964Z,28.50
2017-11-12T08:46:39.502Z,32.00
2017-11-12T08:49:07.043Z,27.27
2017-11-12T08:51:34.644Z,26.98
2017-11-12T08:54:02.346Z,30.35
2017-11-12T08:56:30.654Z,32.10
2017-11-12T08:58:58.189Z,32.75
2017-11-12T09:01:26.913Z,30.40
2017-11-12T09:03:54.452Z,29.02
2017-11-12T09:06:22.757Z,29.27
2017-11-12T09:08:50.355Z,28.48
2017-11-12T09:11:18.663Z,29.20
2017-11-12T09:13:46.198Z,30.27
2017-11-12T09:16:18.834Z,25.92
2017-11-12T09:18:46.387Z,27.37
2017-11-12T09:21:13.925Z,24.45
2017-11-12T09:23:41.533Z,31.80
2017-11-12T09:26:09.089Z,28.17
2017-11-12T09:28:40.377Z,31.85
2017-11-12T09:31:08.133Z,26.00
2017-11-12T09:33:36.442Z,23.23
2017-11-12T09:36:04.785Z,26.85
2017-11-12T09:38:33.129Z,19.73
2017-11-12T09:41:00.677Z,16.52
2017-11-12T09:43:28.275Z,30.80
2017-11-12T09:45:56.635Z,17.20
2017-11-12T09:48:24.177Z,20.92
2017-11-12T09:50:51.749Z,17.58
2017-11-12T09:53:19.281Z,13.73
2017-11-12T09:55:46.864Z,16.08
2017-11-12T09:58:14.403Z,15.13
2017-11-12T10:00:42.123Z,17.73
2017-11-12T10:03:10.426Z,19.20
2017-11-12T10:05:37.967Z,18.30
2017-11-12T10:08:05.909Z,17.15
2017-11-12T10:10:33.448Z,15.80
2017-11-12T10:13:00.989Z,16.55
2017-11-12T10:15:28.569Z,9.52
2017-11-12T10:17:56.141Z,14.38
2017-11-12T10:20:23.677Z,11.25
2017-11-12T10:22:51.661Z,8.38
2017-11-12T10:25:19.187Z,6.85
2017-11-12T10:27:46.730Z,8.02
2017-11-12T10:30:14.358Z,9.30
2017-11-12T10:32:41.965Z,8.70
2017-11-12T10:35:09.492Z,8.35
2017-11-12T10:37:37.795Z,7.55
2017-11-12T10:40:05.377Z,10.00
2017-11-12T10:42:32.905Z,9.80
2017-11-12T10:45:01.257Z,9.90
2017-11-12T10:47:29.574Z,9.82
2017-11-12T10:49:57.283Z,12.27
2017-11-12T10:52:24.820Z,11.50
2017-11-12T10:54:52.362Z,25.58
2017-11-12T10:57:20.002Z,11.05
2017-11-12T10:59:48.365Z,9.85
2017-11-12T11:02:16.666Z,13.88
2017-11-12T11:04:44.204Z,30.67
2017-11-12T11:07:12.598Z,12.95
2017-11-12T11:09:40.142Z,14.70
2017-11-12T11:12:08.457Z,12.20
2017-11-12T11:14:36.258Z,18.60
2017-11-12T11:17:03.950Z,17.70
2017-11-12T11:19:32.289Z,14.35
2017-11-12T11:21:59.821Z,17.85
2017-11-12T11:24:28.231Z,8.35
2017-11-12T11:26:55.804Z,9.63
2017-11-12T11:29:23.802Z,9.00
2017-11-12T11:31:52.146Z,10.40
2017-11-12T11:34:19.693Z,17.62
2017-11-12T11:36:47.226Z,14.95
2017-11-12T11:39:14.805Z,11.07
2017-11-12T11:41:42.350Z,164.23
2017-11-12T11:44:10.079Z,26.67
2017-11-12T11:46:38.379Z,10.70
2017-11-12T11:49:06.081Z,23.65
2017-11-12T11:51:33.613Z,13.40
2017-11-12T11:54:01.146Z,11.30
2017-11-12T11:56:29.496Z,11.43
2017-11-12T11:58:57.074Z,15.00
2017-11-12T12:01:25.422Z,12.25
2017-11-12T12:03:53.385Z,13.62
2017-11-12T12:06:20.924Z,12.45
2017-11-12T12:08:49.229Z,17.08
2017-11-12T12:11:16.810Z,12.35
2017-11-12T12:13:44.439Z,14.82
2017-11-12T12:16:12.003Z,12.93
2017-11-12T12:18:39.529Z,14.43
2017-11-12T12:21:07.109Z,12.88
2017-11-12T12:23:34.729Z,14.27
2017-11-12T12:26:03.059Z,17.58
2017-11-12T12:28:30.603Z,14.50
2017-11-12T12:30:58.270Z,15.88
2017-11-12T12:33:25.806Z,14.60
2017-11-12T12:35:53.363Z,14.63
2017-11-12T12:38:21.405Z,16.67
2017-11-12T12:40:48.947Z,17.95
2017-11-12T12:43:16.486Z,16.80
2017-11-12T12:45:44.093Z,17.23
2017-11-12T12:48:12.397Z,16.25
2017-11-12T12:50:39.930Z,17.65
2017-11-12T12:53:08.286Z,15.07
2017-11-12T12:55:36.014Z,20.25
2017-11-12T12:58:03.553Z,19.98
2017-11-12T13:00:31.566Z,19.17
2017-11-12T13:02:59.106Z,25.48
2017-11-12T13:05:26.657Z,40.12
2017-11-12T13:07:54.284Z,25.05
2017-11-12T13:10:22.625Z,27.42
2017-11-12T13:12:50.166Z,22.48
2017-11-12T13:15:18.087Z,20.05
2017-11-12T13:17:46.442Z,17.92
2017-11-12T13:20:13.986Z,22.98
2017-11-12T13:22:41.597Z,20.00
2017-11-12T13:25:09.149Z,22.95
2017-11-12T13:27:37.449Z,21.25
2017-11-12T13:30:05.293Z,19.90
2017-11-12T13:32:33.603Z,25.60
2017-11-12T13:35:01.142Z,23.45
2017-11-12T13:37:29.632Z,20.90
2017-11-12T13:39:57.213Z,23.02
2017-11-12T13:42:24.794Z,23.92
2017-11-12T13:44:52.366Z,23.45
2017-11-12T13:47:19.902Z,19.70
2017-11-12T13:49:47.581Z,20.23
2017-11-12T13:52:15.117Z,20.00
2017-11-12T13:54:42.712Z,17.50
2017-11-12T13:57:10.386Z,15.45
2017-11-12T13:59:37.928Z,17.37
2017-11-12T14:02:06.729Z,17.45
2017-11-12T14:04:34.266Z,14.57
2017-11-12T14:07:01.797Z,15.68
2017-11-12T14:09:30.501Z,13.23
2017-11-12T14:11:58.053Z,16.30
2017-11-12T14:14:25.598Z,14.85
2017-11-12T14:16:53.328Z,16.90
2017-11-12T14:19:21.642Z,20.65
2017-11-12T14:21:49.217Z,17.80
2017-11-12T14:24:16.815Z,16.27
2017-11-12T14:26:44.354Z,17.65
2017-11-12T14:29:11.937Z,14.45
2017-11-12T14:31:39.641Z,15.80
2017-11-12T14:34:07.177Z,30.00
2017-11-12T14:36:35.659Z,16.85
2017-11-12T14:39:03.978Z,15.73
2017-11-12T14:41:31.558Z,14.07
2017-11-12T14:43:59.102Z,14.93
2017-11-12T14:46:26.694Z,12.35
2017-11-12T14:48:54.257Z,15.52
2017-11-12T14:51:21.788Z,10.85
2017-11-12T14:53:49.369Z,10.43
2017-11-12T14:56:16.954Z,7.22
2017-11-12T14:58:45.247Z,7.65
2017-11-12T15:01:12.782Z,7.53
2017-11-12T15:03:40.507Z,8.50
2017-11-12T15:06:08.215Z,6.82
2017-11-12T15:08:36.507Z,6.10
2017-11-12T15:11:09.739Z,6.25
2017-11-12T15:13:37.286Z,6.30
2017-11-12T15:16:04.817Z,6.90
2017-11-12T15:18:33.155Z,7.55
2017-11-12T15:21:00.722Z,7.18
2017-11-12T15:23:28.292Z,7.82
2017-11-12T15:25:55.826Z,7.80
2017-11-12T15:28:23.390Z,8.80
2017-11-12T15:30:50.910Z,9.55
2017-11-12T15:33:18.911Z,12.45
2017-11-12T15:35:46.457Z,16.50
2017-11-12T15:38:14.113Z,17.70
2017-11-12T15:40:41.659Z,23.52
2017-11-12T15:43:09.237Z,18.67
2017-11-12T15:45:36.784Z,18.67
2017-11-12T15:48:04.389Z,14.95
2017-11-12T15:50:31.921Z,21.25
2017-11-12T15:53:00.250Z,41.28
2017-11-12T15:55:28.621Z,18.87
2017-11-12T15:57:56.992Z,20.37
2017-11-12T16:00:24.522Z,32.42
2017-11-12T16:02:52.061Z,25.25
2017-11-12T16:05:19.707Z,18.98
2017-11-12T16:07:47.249Z,19.40
2017-11-12T16:10:14.877Z,21.65
2017-11-12T16:12:42.434Z,23.10
2017-11-12T16:15:11.517Z,34.00
2017-11-12T16:17:39.051Z,32.35
2017-11-12T16:20:07.866Z,34.65
2017-11-12T16:22:35.397Z,33.78
2017-11-12T16:25:03.006Z,30.90
2017-11-12T16:27:30.541Z,21.33
2017-11-12T16:29:58.073Z,26.23
2017-11-12T16:32:27.050Z,27.80
2017-11-12T16:34:55.474Z,33.38
2017-11-12T16:37:23.020Z,29.00
2017-11-12T16:39:50.555Z,25.17
2017-11-12T16:42:18.891Z,24.87
2017-11-12T16:44:46.429Z,26.58
2017-11-12T16:47:14.322Z,25.90
2017-11-12T16:49:41.854Z,25.25
2017-11-12T16:52:09.389Z,26.33
2017-11-12T16:54:36.962Z,27.30
2017-11-12T16:57:04.502Z,42.17
2017-11-12T16:59:32.115Z,128.05
2017-11-12T17:01:59.686Z,37.17
2017-11-12T17:04:28.274Z,37.13
2017-11-12T17:06:55.813Z,28.10
2017-11-12T17:09:23.453Z,35.22
2017-11-12T17:11:51.034Z,43.85
2017-11-12T17:14:18.622Z,32.78
2017-11-12T17:16:46.938Z,30.67
2017-11-12T17:19:14.533Z,35.13
2017-11-12T17:21:42.062Z,29.98
2017-11-12T17:24:09.595Z,33.05
2017-11-12T17:26:37.938Z,46.13
2017-11-12T17:29:05.534Z,30.92
2017-11-12T17:31:34.177Z,44.42
2017-11-12T17:34:01.708Z,34.92
2017-11-12T17:36:29.594Z,33.60
2017-11-12T17:38:57.177Z,32.78
2017-11-12T17:41:24.714Z,30.00
2017-11-12T17:43:52.290Z,30.08
2017-11-12T17:46:19.829Z,42.62
2017-11-12T17:48:47.441Z,137.62
2017-11-12T17:51:15.743Z,34.45
2017-11-12T17:53:43.279Z,31.42
2017-11-12T17:56:11.775Z,95.50
2017-11-12T17:58:40.152Z,30.00
2017-11-12T18:01:07.699Z,26.30
2017-11-12T18:03:35.418Z,32.38
2017-11-12T18:06:02.959Z,27.42
2017-11-12T18:08:30.535Z,32.00
2017-11-12T18:10:58.067Z,29.63
2017-11-12T18:13:25.692Z,32.38
2017-11-12T18:15:53.228Z,25.50
2017-11-12T18:18:20.756Z,32.97
2017-11-12T18:20:48.329Z,29.05
2017-11-12T18:23:19.590Z,30.05
2017-11-12T18:25:47.124Z,29.50
2017-11-12T18:28:15.425Z,30.90
2017-11-12T18:30:44.315Z,27.92
2017-11-12T18:33:12.062Z,25.95
2017-11-12T18:35:39.642Z,22.67
2017-11-12T18:38:07.185Z,28.27
2017-11-12T18:40:34.763Z,34.67
2017-11-12T18:43:02.301Z,27.20
2017-11-12T18:45:30.027Z,26.27
2017-11-12T18:47:58.325Z,31.90
2017-11-12T18:50:25.899Z,31.02
2017-11-12T18:52:54.233Z,38.10
2017-11-12T18:55:40.658Z,40.30
2017-11-12T18:58:13.978Z,47.83
2017-11-12T19:00:57.433Z,33.85
2017-11-12T19:03:30.729Z,29.15
2017-11-12T19:06:03.946Z,32.20
2017-11-12T19:08:32.134Z,28.55
2017-11-12T19:11:00.430Z,33.00
2017-11-12T19:13:32.846Z,29.40
2017-11-12T19:16:00.381Z,30.92
2017-11-12T19:18:31.165Z,34.22
2017-11-12T19:21:02.689Z,35.05
2017-11-12T19:23:34.918Z,38.78
2017-11-12T19:26:02.453Z,37.60
2017-11-12T19:28:30.790Z,39.92
2017-11-12T19:30:58.562Z,39.88
2017-11-12T19:33:26.326Z,43.55
2017-11-12T19:35:53.866Z,45.85
2017-11-12T19:38:21.437Z,43.95
2017-11-12T19:40:48.969Z,45.12
2017-11-12T19:43:16.565Z,46.28
2017-11-12T19:45:44.169Z,42.60
2017-11-12T19:48:12.476Z,40.60
2017-11-12T19:50:40.016Z,41.97
2017-11-12T19:53:10.819Z,39.35
2017-11-12T19:55:38.397Z,40.55
2017-11-12T19:58:06.737Z,41.25
2017-11-12T20:00:34.269Z,39.30
2017-11-12T20:03:02.030Z,35.33
2017-11-12T20:05:29.646Z,41.58
2017-11-12T20:07:57.181Z,39.25
2017-11-12T20:10:24.767Z,37.33
2017-11-12T20:12:52.306Z,38.67
2017-11-12T20:15:19.834Z,37.53
2017-11-12T20:17:52.338Z,36.08
2017-11-12T20:20:19.884Z,36.70
2017-11-12T20:22:47.420Z,36.60
2017-11-12T20:25:14.996Z,40.05
2017-11-12T20:27:42.530Z,40.80
2017-11-12T20:30:10.123Z,41.40
2017-11-12T20:32:37.659Z,42.78
2017-11-12T20:35:05.190Z,38.30
2017-11-12T20:37:33.847Z,38.03
2017-11-12T20:40:01.658Z,37.42
2017-11-12T20:42:33.702Z,38.65
2017-11-12T20:45:01.237Z,35.92
2017-11-12T20:47:28.846Z,35.80
2017-11-12T20:49:57.146Z,35.88
2017-11-12T20:52:24.678Z,35.97
2017-11-12T20:54:53.160Z,34.63
2017-11-12T20:57:22.819Z,36.92
2017-11-12T20:59:50.362Z,33.20
2017-11-12T21:02:17.905Z,35.88
2017-11-12T21:05:04.243Z,37.15
2017-11-12T21:07:31.817Z,37.88
2017-11-12T21:09:59.575Z,33.25
2017-11-12T21:12:27.174Z,35.80
2017-11-12T21:14:55.469Z,34.05
2017-11-12T21:17:23.013Z,34.45
2017-11-12T21:20:10.030Z,37.35
2017-11-12T21:22:43.210Z,35.70
2017-11-12T21:25:11.621Z,38.35
2017-11-12T21:27:39.157Z,34.13
2017-11-12T21:30:10.829Z,36.85
2017-11-12T21:32:39.823Z,35.58
2017-11-12T21:35:10.358Z,39.05
2017-11-12T21:37:43.541Z,38.50
2017-11-12T21:40:11.282Z,38.72
2017-11-12T21:42:39.589Z,40.30
2017-11-12T21:45:07.190Z,43.70
2017-11-12T21:47:34.720Z,39.90
2017-11-12T21:50:02.289Z,39.08
2017-11-12T21:52:30.624Z,36.13
2017-11-12T21:54:58.922Z,37.83
2017-11-12T21:57:26.928Z,40.22
2017-11-12T21:59:54.467Z,38.45
2017-11-12T22:02:22.006Z,39.92
2017-11-12T22:04:49.911Z,39.17
2017-11-12T22:07:17.442Z,38.72
2017-11-12T22:09:45.700Z,42.55
2017-11-12T22:12:13.515Z,41.47
2017-11-12T22:14:41.072Z,45.50
2017-11-12T22:17:08.781Z,38.72
2017-11-12T22:19:37.086Z,41.75
2017-11-12T22:22:04.619Z,42.72
2017-11-12T22:24:32.998Z,42.33
2017-11-12T22:27:01.293Z,37.63
2017-11-12T22:29:28.825Z,44.53
2017-11-12T22:31:57.281Z,38.05
2017-11-12T22:34:24.817Z,40.38
2017-11-12T22:36:52.344Z,39.53
2017-11-12T22:39:25.496Z,39.30
2017-11-12T22:41:53.220Z,46.67
2017-11-12T22:44:20.753Z,41.13
2017-11-12T22:46:49.133Z,42.22
2017-11-12T22:49:17.431Z,41.83
2017-11-12T22:51:46.228Z,41.53
2017-11-12T22:54:13.758Z,39.58
2017-11-12T22:56:42.056Z,40.25
2017-11-12T22:59:09.635Z,39.08
2017-11-12T23:01:37.169Z,42.22
2017-11-12T23:04:04.847Z,48.03
2017-11-12T23:06:32.377Z,41.55
2017-11-12T23:09:00.772Z,42.42
2017-11-12T23:11:28.310Z,44.95
2017-11-12T23:13:56.661Z,40.35
2017-11-12T23:16:24.197Z,36.80
2017-11-12T23:18:51.748Z,39.13
2017-11-12T23:21:20.556Z,42.62
2017-11-12T23:23:48.149Z,39.58
2017-11-12T23:26:16.446Z,35.58
2017-11-12T23:28:43.977Z,44.17
2017-11-12T23:31:11.579Z,42.83
2017-11-12T23:33:39.106Z,42.75
2017-11-12T23:36:07.405Z,43.05
2017-11-12T23:38:35.122Z,38.75
2017-11-12T23:41:02.790Z,38.10
2017-11-12T23:43:30.372Z,40.20
2017-11-12T23:45:58.674Z,42.33
2017-11-12T23:48:26.245Z,37.88
2017-11-12T23:50:53.785Z,32.80
2017-11-12T23:53:22.265Z,37.80
2017-11-12T23:55:49.806Z,37.35
2017-11-12T23:58:18.154Z,36.95
